sensor_id;sensor_type;location;lat;lon;timestamp;P1;durP1;ratioP1;P2;durP2;ratioP2
52618;SDS011;38513;53.234;6.568;2024-03-23T00:51:38;37.67;;;9.07;;
52618;SDS011;38513;53.234;6.568;2024-03-23T00:54:05;40.97;;;9.68;;
52618;SDS011;38513;53.234;6.568;2024-03-23T00:56:39;41.00;;;10.18;;
52618;SDS011;38513;53.234;6.568;2024-03-23T00:59:08;41.33;;;9.10;;
52618;SDS011;38513;53.234;6.568;2024-03-23T01:01:35;38.60;;;9.47;;
52618;SDS011;38513;53.234;6.568;2024-03-23T01:04:04;39.70;;;9.38;;
52618;SDS011;38513;53.234;6.568;2024-03-23T01:06:30;43.53;;;8.85;;
52618;SDS011;38513;53.234;6.568;2024-03-23T01:08:58;39.97;;;9.52;;
52618;SDS011;38513;53.234;6.568;2024-03-23T01:11:25;43.40;;;9.88;;
52618;SDS011;38513;53.234;6.568;2024-03-23T01:13:54;35.75;;;8.93;;
52618;SDS011;38513;53.234;6.568;2024-03-23T01:16:21;36.63;;;9.82;;
52618;SDS011;38513;53.234;6.568;2024-03-23T01:18:48;37.15;;;9.30;;
52618;SDS011;38513;53.234;6.568;2024-03-23T01:21:14;38.03;;;9.48;;
52618;SDS011;38513;53.234;6.568;2024-03-23T01:23:41;39.45;;;9.80;;
52618;SDS011;38513;53.234;6.568;2024-03-23T01:26:10;41.45;;;9.93;;
52618;SDS011;38513;53.234;6.568;2024-03-23T01:28:36;36.28;;;9.80;;
52618;SDS011;38513;53.234;6.568;2024-03-23T01:31:08;38.00;;;9.70;;
52618;SDS011;38513;53.234;6.568;2024-03-23T01:33:44;44.38;;;10.60;;
52618;SDS011;38513;53.234;6.568;2024-03-23T01:36:18;39.22;;;9.68;;
52618;SDS011;38513;53.234;6.568;2024-03-23T01:39:07;36.88;;;9.45;;
52618;SDS011;38513;53.234;6.568;2024-03-23T01:41:37;38.97;;;9.55;;
52618;SDS011;38513;53.234;6.568;2024-03-23T01:44:11;40.53;;;9.82;;
52618;SDS011;38513;53.234;6.568;2024-03-23T01:46:55;36.17;;;9.03;;
52618;SDS011;38513;53.234;6.568;2024-03-23T01:49:31;35.28;;;9.20;;
52618;SDS011;38513;53.234;6.568;2024-03-23T01:51:58;36.70;;;9.43;;
52618;SDS011;38513;53.234;6.568;2024-03-23T01:54:29;39.42;;;9.02;;
52618;SDS011;38513;53.234;6.568;2024-03-23T01:57:02;41.88;;;9.35;;
52618;SDS011;38513;53.234;6.568;2024-03-23T01:59:50;41.83;;;9.45;;
52618;SDS011;38513;53.234;6.568;2024-03-23T02:02:32;36.80;;;9.65;;
52618;SDS011;38513;53.234;6.568;2024-03-23T02:05:11;35.63;;;9.05;;
52618;SDS011;38513;53.234;6.568;2024-03-23T02:07:47;34.85;;;8.70;;
52618;SDS011;38513;53.234;6.568;2024-03-23T02:10:21;34.92;;;9.25;;
52618;SDS011;38513;53.234;6.568;2024-03-23T02:12:52;33.83;;;8.90;;
52618;SDS011;38513;53.234;6.568;2024-03-23T02:15:28;36.85;;;9.07;;
52618;SDS011;38513;53.234;6.568;2024-03-23T02:17:57;42.60;;;9.20;;
52618;SDS011;38513;53.234;6.568;2024-03-23T02:20:29;37.10;;;9.52;;
52618;SDS011;38513;53.234;6.568;2024-03-23T02:23:00;37.72;;;9.10;;
52618;SDS011;38513;53.234;6.568;2024-03-23T02:25:26;33.28;;;8.10;;
52618;SDS011;38513;53.234;6.568;2024-03-23T02:27:55;29.60;;;7.47;;
52618;SDS011;38513;53.234;6.568;2024-03-23T02:30:27;33.03;;;8.20;;
52618;SDS011;38513;53.234;6.568;2024-03-23T02:32:57;33.00;;;8.10;;
52618;SDS011;38513;53.234;6.568;2024-03-23T02:35:24;34.08;;;8.70;;
52618;SDS011;38513;53.234;6.568;2024-03-23T02:37:50;33.45;;;7.50;;
52618;SDS011;38513;53.234;6.568;2024-03-23T02:40:19;32.30;;;8.23;;
52618;SDS011;38513;53.234;6.568;2024-03-23T02:42:48;37.42;;;8.55;;
52618;SDS011;38513;53.234;6.568;2024-03-23T02:45:15;30.63;;;7.30;;
52618;SDS011;38513;53.234;6.568;2024-03-23T02:47:43;29.55;;;7.70;;
52618;SDS011;38513;53.234;6.568;2024-03-23T02:50:12;28.48;;;7.72;;
52618;SDS011;38513;53.234;6.568;2024-03-23T02:52:44;33.83;;;8.30;;
52618;SDS011;38513;53.234;6.568;2024-03-23T02:55:13;35.78;;;8.27;;
52618;SDS011;38513;53.234;6.568;2024-03-23T02:57:41;31.50;;;7.28;;
52618;SDS011;38513;53.234;6.568;2024-03-23T03:00:11;33.13;;;7.88;;
52618;SDS011;38513;53.234;6.568;2024-03-23T03:02:41;29.48;;;7.45;;
52618;SDS011;38513;53.234;6.568;2024-03-23T03:05:08;30.08;;;6.93;;
52618;SDS011;38513;53.234;6.568;2024-03-23T03:07:37;32.95;;;7.53;;
52618;SDS011;38513;53.234;6.568;2024-03-23T03:10:06;29.63;;;6.90;;
52618;SDS011;38513;53.234;6.568;2024-03-23T03:12:38;28.75;;;7.25;;
52618;SDS011;38513;53.234;6.568;2024-03-23T03:15:07;33.63;;;7.63;;
52618;SDS011;38513;53.234;6.568;2024-03-23T03:17:34;30.17;;;7.20;;
52618;SDS011;38513;53.234;6.568;2024-03-23T03:20:04;30.45;;;6.70;;
52618;SDS011;38513;53.234;6.568;2024-03-23T03:22:31;31.70;;;6.93;;
52618;SDS011;38513;53.234;6.568;2024-03-23T03:25:15;25.63;;;6.60;;
52618;SDS011;38513;53.234;6.568;2024-03-23T03:27:44;26.38;;;6.30;;
52618;SDS011;38513;53.234;6.568;2024-03-23T03:30:12;32.50;;;6.95;;
52618;SDS011;38513;53.234;6.568;2024-03-23T03:32:39;26.33;;;6.07;;
52618;SDS011;38513;53.234;6.568;2024-03-23T03:35:11;30.27;;;6.15;;
52618;SDS011;38513;53.234;6.568;2024-03-23T03:37:42;28.50;;;6.45;;
52618;SDS011;38513;53.234;6.568;2024-03-23T03:40:09;29.92;;;7.05;;
52618;SDS011;38513;53.234;6.568;2024-03-23T03:42:36;30.10;;;6.57;;
52618;SDS011;38513;53.234;6.568;2024-03-23T03:45:05;27.77;;;6.18;;
52618;SDS011;38513;53.234;6.568;2024-03-23T03:47:32;28.17;;;6.53;;
52618;SDS011;38513;53.234;6.568;2024-03-23T03:49:58;24.85;;;5.88;;
52618;SDS011;38513;53.234;6.568;2024-03-23T03:52:34;31.67;;;7.03;;
52618;SDS011;38513;53.234;6.568;2024-03-23T03:55:06;28.87;;;6.67;;
52618;SDS011;38513;53.234;6.568;2024-03-23T03:57:42;28.77;;;7.10;;
52618;SDS011;38513;53.234;6.568;2024-03-23T04:00:12;29.70;;;6.10;;
52618;SDS011;38513;53.234;6.568;2024-03-23T04:02:59;32.33;;;7.13;;
52618;SDS011;38513;53.234;6.568;2024-03-23T04:05:28;25.90;;;6.38;;
52618;SDS011;38513;53.234;6.568;2024-03-23T04:07:57;29.27;;;6.32;;
52618;SDS011;38513;53.234;6.568;2024-03-23T04:10:26;29.37;;;6.70;;
52618;SDS011;38513;53.234;6.568;2024-03-23T04:12:55;30.73;;;6.78;;
52618;SDS011;38513;53.234;6.568;2024-03-23T04:15:24;26.70;;;6.82;;
52618;SDS011;38513;53.234;6.568;2024-03-23T04:17:51;26.38;;;6.63;;
52618;SDS011;38513;53.234;6.568;2024-03-23T04:20:26;30.73;;;5.95;;
52618;SDS011;38513;53.234;6.568;2024-03-23T04:23:02;26.60;;;6.22;;
52618;SDS011;38513;53.234;6.568;2024-03-23T04:26:09;29.70;;;6.93;;
52618;SDS011;38513;53.234;6.568;2024-03-23T04:29:11;25.65;;;6.20;;
52618;SDS011;38513;53.234;6.568;2024-03-23T04:32:02;26.27;;;6.22;;
52618;SDS011;38513;53.234;6.568;2024-03-23T04:34:49;30.45;;;6.22;;
52618;SDS011;38513;53.234;6.568;2024-03-23T04:37:35;28.20;;;6.30;;
52618;SDS011;38513;53.234;6.568;2024-03-23T04:40:13;27.95;;;5.93;;
52618;SDS011;38513;53.234;6.568;2024-03-23T04:42:52;33.65;;;7.05;;
52618;SDS011;38513;53.234;6.568;2024-03-23T04:45:40;26.05;;;6.55;;
52618;SDS011;38513;53.234;6.568;2024-03-23T04:51:20;26.55;;;5.90;;
52618;SDS011;38513;53.234;6.568;2024-03-23T04:56:51;26.73;;;5.68;;
52618;SDS011;38513;53.234;6.568;2024-03-23T04:59:32;24.95;;;5.70;;
52618;SDS011;38513;53.234;6.568;2024-03-23T05:02:27;26.20;;;5.57;;
52618;SDS011;38513;53.234;6.568;2024-03-23T05:05:02;26.67;;;5.80;;
52618;SDS011;38513;53.234;6.568;2024-03-23T05:07:35;22.10;;;5.30;;
52618;SDS011;38513;53.234;6.568;2024-03-23T05:10:37;24.92;;;5.38;;
52618;SDS011;38513;53.234;6.568;2024-03-23T05:13:29;24.95;;;5.20;;
52618;SDS011;38513;53.234;6.568;2024-03-23T05:16:02;23.75;;;5.47;;
52618;SDS011;38513;53.234;6.568;2024-03-23T05:18:44;22.73;;;5.30;;
52618;SDS011;38513;53.234;6.568;2024-03-23T05:21:13;22.17;;;5.55;;
52618;SDS011;38513;53.234;6.568;2024-03-23T05:23:58;28.50;;;6.00;;
52618;SDS011;38513;53.234;6.568;2024-03-23T05:27:00;22.85;;;5.35;;
52618;SDS011;38513;53.234;6.568;2024-03-23T05:29:57;25.67;;;5.30;;
52618;SDS011;38513;53.234;6.568;2024-03-23T05:32:49;25.00;;;5.30;;
52618;SDS011;38513;53.234;6.568;2024-03-23T05:35:22;30.05;;;5.90;;
52618;SDS011;38513;53.234;6.568;2024-03-23T05:38:21;25.80;;;5.20;;
52618;SDS011;38513;53.234;6.568;2024-03-23T05:41:16;27.43;;;5.20;;
52618;SDS011;38513;53.234;6.568;2024-03-23T05:46:54;28.85;;;5.40;;
52618;SDS011;38513;53.234;6.568;2024-03-23T05:49:26;25.17;;;5.13;;
52618;SDS011;38513;53.234;6.568;2024-03-23T05:51:59;24.13;;;5.20;;
52618;SDS011;38513;53.234;6.568;2024-03-23T05:54:33;24.05;;;4.85;;
52618;SDS011;38513;53.234;6.568;2024-03-23T05:57:05;24.95;;;4.60;;
52618;SDS011;38513;53.234;6.568;2024-03-23T05:59:32;21.77;;;4.32;;
52618;SDS011;38513;53.234;6.568;2024-03-23T06:02:12;23.75;;;4.70;;
52618;SDS011;38513;53.234;6.568;2024-03-23T06:04:42;22.35;;;4.75;;
52618;SDS011;38513;53.234;6.568;2024-03-23T06:07:08;24.05;;;4.30;;
52618;SDS011;38513;53.234;6.568;2024-03-23T06:09:49;22.40;;;4.43;;
52618;SDS011;38513;53.234;6.568;2024-03-23T06:12:25;22.95;;;4.22;;
52618;SDS011;38513;53.234;6.568;2024-03-23T06:17:55;22.20;;;4.32;;
52618;SDS011;38513;53.234;6.568;2024-03-23T06:20:29;17.40;;;3.42;;
52618;SDS011;38513;53.234;6.568;2024-03-23T06:23:00;19.35;;;3.92;;
52618;SDS011;38513;53.234;6.568;2024-03-23T06:25:58;22.65;;;4.63;;
52618;SDS011;38513;53.234;6.568;2024-03-23T06:28:27;19.83;;;3.97;;
52618;SDS011;38513;53.234;6.568;2024-03-23T06:30:56;20.40;;;3.95;;
52618;SDS011;38513;53.234;6.568;2024-03-23T06:33:22;19.50;;;3.92;;
52618;SDS011;38513;53.234;6.568;2024-03-23T06:36:03;20.95;;;3.65;;
52618;SDS011;38513;53.234;6.568;2024-03-23T06:38:34;17.67;;;3.42;;
52618;SDS011;38513;53.234;6.568;2024-03-23T06:41:04;16.83;;;3.67;;
52618;SDS011;38513;53.234;6.568;2024-03-23T06:43:33;15.18;;;2.92;;
52618;SDS011;38513;53.234;6.568;2024-03-23T06:46:05;15.63;;;3.10;;
52618;SDS011;38513;53.234;6.568;2024-03-23T06:48:41;18.65;;;3.38;;
52618;SDS011;38513;53.234;6.568;2024-03-23T06:51:15;17.05;;;3.25;;
52618;SDS011;38513;53.234;6.568;2024-03-23T06:53:57;15.85;;;3.38;;
52618;SDS011;38513;53.234;6.568;2024-03-23T06:56:35;14.35;;;3.38;;
52618;SDS011;38513;53.234;6.568;2024-03-23T06:59:03;17.00;;;3.35;;
52618;SDS011;38513;53.234;6.568;2024-03-23T07:01:32;13.55;;;3.08;;
52618;SDS011;38513;53.234;6.568;2024-03-23T07:04:00;15.95;;;3.25;;
52618;SDS011;38513;53.234;6.568;2024-03-23T07:06:41;17.13;;;3.40;;
52618;SDS011;38513;53.234;6.568;2024-03-23T07:09:17;18.02;;;3.58;;
52618;SDS011;38513;53.234;6.568;2024-03-23T07:11:47;16.90;;;3.42;;
52618;SDS011;38513;53.234;6.568;2024-03-23T07:14:14;18.77;;;3.85;;
52618;SDS011;38513;53.234;6.568;2024-03-23T07:16:40;18.27;;;3.30;;
52618;SDS011;38513;53.234;6.568;2024-03-23T07:19:06;18.85;;;3.80;;
52618;SDS011;38513;53.234;6.568;2024-03-23T07:21:35;18.38;;;3.90;;
52618;SDS011;38513;53.234;6.568;2024-03-23T07:24:21;16.25;;;3.42;;
52618;SDS011;38513;53.234;6.568;2024-03-23T07:26:58;12.30;;;2.90;;
52618;SDS011;38513;53.234;6.568;2024-03-23T07:29:26;13.10;;;2.80;;
52618;SDS011;38513;53.234;6.568;2024-03-23T07:32:08;11.05;;;2.63;;
52618;SDS011;38513;53.234;6.568;2024-03-23T07:34:36;9.63;;;2.35;;
52618;SDS011;38513;53.234;6.568;2024-03-23T07:37:03;12.20;;;3.10;;
52618;SDS011;38513;53.234;6.568;2024-03-23T07:39:32;14.50;;;3.30;;
52618;SDS011;38513;53.234;6.568;2024-03-23T07:41:59;13.70;;;3.00;;
52618;SDS011;38513;53.234;6.568;2024-03-23T07:44:25;12.85;;;2.80;;
52618;SDS011;38513;53.234;6.568;2024-03-23T07:46:54;11.73;;;2.70;;
52618;SDS011;38513;53.234;6.568;2024-03-23T07:49:22;15.15;;;2.72;;
52618;SDS011;38513;53.234;6.568;2024-03-23T07:51:54;10.50;;;2.40;;
52618;SDS011;38513;53.234;6.568;2024-03-23T07:54:28;10.13;;;2.60;;
52618;SDS011;38513;53.234;6.568;2024-03-23T07:57:00;10.10;;;2.33;;
52618;SDS011;38513;53.234;6.568;2024-03-23T07:59:32;11.88;;;2.45;;
52618;SDS011;38513;53.234;6.568;2024-03-23T08:02:01;12.48;;;2.60;;
52618;SDS011;38513;53.234;6.568;2024-03-23T08:04:33;9.95;;;2.42;;
52618;SDS011;38513;53.234;6.568;2024-03-23T08:07:15;10.55;;;1.98;;
52618;SDS011;38513;53.234;6.568;2024-03-23T08:09:55;9.88;;;2.30;;
52618;SDS011;38513;53.234;6.568;2024-03-23T08:12:34;12.60;;;2.47;;
52618;SDS011;38513;53.234;6.568;2024-03-23T08:15:00;12.85;;;2.65;;
52618;SDS011;38513;53.234;6.568;2024-03-23T08:17:52;10.07;;;2.40;;
52618;SDS011;38513;53.234;6.568;2024-03-23T08:20:23;11.18;;;2.70;;
52618;SDS011;38513;53.234;6.568;2024-03-23T08:22:57;10.48;;;2.85;;
52618;SDS011;38513;53.234;6.568;2024-03-23T08:25:30;12.68;;;2.80;;
52618;SDS011;38513;53.234;6.568;2024-03-23T08:28:02;11.32;;;3.10;;
52618;SDS011;38513;53.234;6.568;2024-03-23T08:30:28;10.10;;;2.80;;
52618;SDS011;38513;53.234;6.568;2024-03-23T08:38:43;11.53;;;2.83;;
52618;SDS011;38513;53.234;6.568;2024-03-23T08:41:20;9.50;;;2.80;;
52618;SDS011;38513;53.234;6.568;2024-03-23T08:43:52;13.02;;;3.50;;
52618;SDS011;38513;53.234;6.568;2024-03-23T08:46:37;13.50;;;3.42;;
52618;SDS011;38513;53.234;6.568;2024-03-23T08:52:07;15.45;;;3.42;;
52618;SDS011;38513;53.234;6.568;2024-03-23T08:57:31;13.85;;;3.42;;
52618;SDS011;38513;53.234;6.568;2024-03-23T09:03:30;17.55;;;3.85;;
52618;SDS011;38513;53.234;6.568;2024-03-23T09:08:59;17.15;;;3.95;;
52618;SDS011;38513;53.234;6.568;2024-03-23T09:17:34;16.65;;;3.70;;
52618;SDS011;38513;53.234;6.568;2024-03-23T09:20:12;12.63;;;3.08;;
52618;SDS011;38513;53.234;6.568;2024-03-23T09:22:49;13.85;;;3.28;;
52618;SDS011;38513;53.234;6.568;2024-03-23T09:25:41;15.52;;;3.22;;
52618;SDS011;38513;53.234;6.568;2024-03-23T09:31:42;15.02;;;3.35;;
52618;SDS011;38513;53.234;6.568;2024-03-23T09:34:33;18.95;;;3.72;;
52618;SDS011;38513;53.234;6.568;2024-03-23T09:37:00;10.75;;;3.08;;
52618;SDS011;38513;53.234;6.568;2024-03-23T09:39:41;15.60;;;3.30;;
52618;SDS011;38513;53.234;6.568;2024-03-23T09:50:58;9.43;;;2.05;;
52618;SDS011;38513;53.234;6.568;2024-03-23T09:53:27;10.07;;;2.00;;
52618;SDS011;38513;53.234;6.568;2024-03-23T09:56:04;11.38;;;2.25;;
52618;SDS011;38513;53.234;6.568;2024-03-23T09:58:51;11.52;;;2.38;;
52618;SDS011;38513;53.234;6.568;2024-03-23T10:01:36;11.52;;;2.20;;
52618;SDS011;38513;53.234;6.568;2024-03-23T10:04:11;9.00;;;1.80;;
52618;SDS011;38513;53.234;6.568;2024-03-23T10:06:42;8.23;;;1.60;;
52618;SDS011;38513;53.234;6.568;2024-03-23T10:09:41;8.05;;;1.48;;
52618;SDS011;38513;53.234;6.568;2024-03-23T10:12:16;8.95;;;1.55;;
52618;SDS011;38513;53.234;6.568;2024-03-23T10:15:12;7.10;;;1.40;;
52618;SDS011;38513;53.234;6.568;2024-03-23T10:17:41;7.63;;;1.90;;
52618;SDS011;38513;53.234;6.568;2024-03-23T10:20:13;10.20;;;2.40;;
52618;SDS011;38513;53.234;6.568;2024-03-23T10:22:50;10.05;;;2.25;;
52618;SDS011;38513;53.234;6.568;2024-03-23T10:25:30;13.50;;;2.35;;
52618;SDS011;38513;53.234;6.568;2024-03-23T10:34:12;14.65;;;3.38;;
52618;SDS011;38513;53.234;6.568;2024-03-23T10:36:54;16.33;;;3.40;;
52618;SDS011;38513;53.234;6.568;2024-03-23T10:39:45;15.07;;;3.15;;
52618;SDS011;38513;53.234;6.568;2024-03-23T10:58:33;12.10;;;2.80;;
52618;SDS011;38513;53.234;6.568;2024-03-23T11:01:36;11.52;;;2.60;;
52618;SDS011;38513;53.234;6.568;2024-03-23T11:04:43;12.80;;;2.95;;
52618;SDS011;38513;53.234;6.568;2024-03-23T11:07:36;12.65;;;2.80;;
52618;SDS011;38513;53.234;6.568;2024-03-23T11:10:30;15.68;;;2.88;;
52618;SDS011;38513;53.234;6.568;2024-03-23T11:13:23;11.15;;;2.90;;
52618;SDS011;38513;53.234;6.568;2024-03-23T11:15:50;13.70;;;3.17;;
52618;SDS011;38513;53.234;6.568;2024-03-23T11:18:24;16.80;;;3.20;;
52618;SDS011;38513;53.234;6.568;2024-03-23T11:20:51;13.57;;;2.90;;
52618;SDS011;38513;53.234;6.568;2024-03-23T11:23:27;12.27;;;2.47;;
52618;SDS011;38513;53.234;6.568;2024-03-23T11:26:18;12.38;;;2.30;;
52618;SDS011;38513;53.234;6.568;2024-03-23T11:29:14;10.60;;;2.38;;
52618;SDS011;38513;53.234;6.568;2024-03-23T11:31:55;13.55;;;2.88;;
52618;SDS011;38513;53.234;6.568;2024-03-23T11:34:33;11.87;;;2.73;;
52618;SDS011;38513;53.234;6.568;2024-03-23T11:40:23;13.13;;;3.10;;
52618;SDS011;38513;53.234;6.568;2024-03-23T11:46:32;13.82;;;3.40;;
52618;SDS011;38513;53.234;6.568;2024-03-23T11:49:30;14.70;;;2.92;;
52618;SDS011;38513;53.234;6.568;2024-03-23T11:52:21;14.93;;;3.08;;
52618;SDS011;38513;53.234;6.568;2024-03-23T11:58:24;14.65;;;3.42;;
52618;SDS011;38513;53.234;6.568;2024-03-23T12:04:28;12.13;;;3.03;;
52618;SDS011;38513;53.234;6.568;2024-03-23T12:07:32;14.25;;;3.38;;
52618;SDS011;38513;53.234;6.568;2024-03-23T12:10:08;12.63;;;2.53;;
52618;SDS011;38513;53.234;6.568;2024-03-23T12:18:31;15.75;;;3.28;;
52618;SDS011;38513;53.234;6.568;2024-03-23T12:24:29;13.40;;;3.22;;
52618;SDS011;38513;53.234;6.568;2024-03-23T12:30:20;13.63;;;2.55;;
52618;SDS011;38513;53.234;6.568;2024-03-23T12:32:58;11.60;;;2.30;;
52618;SDS011;38513;53.234;6.568;2024-03-23T12:35:25;8.35;;;2.30;;
52618;SDS011;38513;53.234;6.568;2024-03-23T12:38:00;10.02;;;2.30;;
52618;SDS011;38513;53.234;6.568;2024-03-23T12:40:38;12.07;;;2.50;;
52618;SDS011;38513;53.234;6.568;2024-03-23T12:43:15;13.20;;;2.65;;
52618;SDS011;38513;53.234;6.568;2024-03-23T12:45:51;10.95;;;2.22;;
52618;SDS011;38513;53.234;6.568;2024-03-23T12:48:20;9.18;;;2.50;;
52618;SDS011;38513;53.234;6.568;2024-03-23T12:53:51;13.40;;;2.75;;
52618;SDS011;38513;53.234;6.568;2024-03-23T12:56:24;10.05;;;2.13;;
52618;SDS011;38513;53.234;6.568;2024-03-23T12:59:10;11.68;;;2.03;;
52618;SDS011;38513;53.234;6.568;2024-03-23T13:01:39;13.80;;;2.88;;
52618;SDS011;38513;53.234;6.568;2024-03-23T13:04:05;8.68;;;2.00;;
52618;SDS011;38513;53.234;6.568;2024-03-23T13:06:35;13.13;;;2.43;;
52618;SDS011;38513;53.234;6.568;2024-03-23T13:09:01;10.63;;;2.30;;
52618;SDS011;38513;53.234;6.568;2024-03-23T13:11:31;13.32;;;2.75;;
52618;SDS011;38513;53.234;6.568;2024-03-23T13:14:15;13.18;;;3.15;;
52618;SDS011;38513;53.234;6.568;2024-03-23T13:16:46;15.77;;;3.30;;
52618;SDS011;38513;53.234;6.568;2024-03-23T13:19:20;13.20;;;3.05;;
52618;SDS011;38513;53.234;6.568;2024-03-23T13:21:52;16.13;;;3.50;;
52618;SDS011;38513;53.234;6.568;2024-03-23T13:24:24;14.18;;;3.30;;
52618;SDS011;38513;53.234;6.568;2024-03-23T13:27:11;14.68;;;3.22;;
52618;SDS011;38513;53.234;6.568;2024-03-23T13:32:41;14.85;;;3.63;;
52618;SDS011;38513;53.234;6.568;2024-03-23T13:35:23;17.67;;;3.22;;
52618;SDS011;38513;53.234;6.568;2024-03-23T13:37:56;14.70;;;3.20;;
52618;SDS011;38513;53.234;6.568;2024-03-23T13:43:46;12.25;;;2.65;;
52618;SDS011;38513;53.234;6.568;2024-03-23T13:46:36;10.02;;;1.90;;
52618;SDS011;38513;53.234;6.568;2024-03-23T13:49:27;9.98;;;2.45;;
52618;SDS011;38513;53.234;6.568;2024-03-23T13:51:54;11.00;;;2.10;;
52618;SDS011;38513;53.234;6.568;2024-03-23T13:54:28;13.25;;;2.83;;
52618;SDS011;38513;53.234;6.568;2024-03-23T13:56:58;11.48;;;2.38;;
52618;SDS011;38513;53.234;6.568;2024-03-23T13:59:24;15.52;;;3.70;;
52618;SDS011;38513;53.234;6.568;2024-03-23T14:01:53;13.55;;;2.63;;
52618;SDS011;38513;53.234;6.568;2024-03-23T14:04:41;12.20;;;2.37;;
52618;SDS011;38513;53.234;6.568;2024-03-23T14:07:08;10.48;;;2.15;;
52618;SDS011;38513;53.234;6.568;2024-03-23T14:09:46;9.77;;;1.90;;
52618;SDS011;38513;53.234;6.568;2024-03-23T14:12:45;11.43;;;2.50;;
52618;SDS011;38513;53.234;6.568;2024-03-23T14:15:32;15.45;;;2.72;;
52618;SDS011;38513;53.234;6.568;2024-03-23T14:18:25;12.65;;;2.67;;
52618;SDS011;38513;53.234;6.568;2024-03-23T14:21:00;12.35;;;2.95;;
52618;SDS011;38513;53.234;6.568;2024-03-23T14:23:31;10.73;;;2.22;;
52618;SDS011;38513;53.234;6.568;2024-03-23T14:26:01;11.90;;;2.47;;
52618;SDS011;38513;53.234;6.568;2024-03-23T14:28:53;12.88;;;2.83;;
52618;SDS011;38513;53.234;6.568;2024-03-23T14:31:45;16.25;;;3.08;;
52618;SDS011;38513;53.234;6.568;2024-03-23T14:34:18;14.52;;;3.22;;
52618;SDS011;38513;53.234;6.568;2024-03-23T14:36:56;14.63;;;3.25;;
52618;SDS011;38513;53.234;6.568;2024-03-23T14:39:59;17.98;;;4.32;;
52618;SDS011;38513;53.234;6.568;2024-03-23T14:42:56;16.40;;;3.83;;
52618;SDS011;38513;53.234;6.568;2024-03-23T14:51:36;12.95;;;3.40;;
52618;SDS011;38513;53.234;6.568;2024-03-23T14:57:40;15.40;;;3.10;;
52618;SDS011;38513;53.234;6.568;2024-03-23T15:00:31;14.43;;;3.42;;
52618;SDS011;38513;53.234;6.568;2024-03-23T15:03:22;11.68;;;2.83;;
52618;SDS011;38513;53.234;6.568;2024-03-23T15:06:12;15.57;;;3.13;;
52618;SDS011;38513;53.234;6.568;2024-03-23T15:08:56;16.67;;;3.63;;
52618;SDS011;38513;53.234;6.568;2024-03-23T15:11:48;18.85;;;3.42;;
52618;SDS011;38513;53.234;6.568;2024-03-23T15:17:32;12.95;;;2.97;;
52618;SDS011;38513;53.234;6.568;2024-03-23T15:26:28;12.68;;;2.50;;
52618;SDS011;38513;53.234;6.568;2024-03-23T15:32:21;13.50;;;2.90;;
52618;SDS011;38513;53.234;6.568;2024-03-23T15:34:50;12.13;;;2.67;;
52618;SDS011;38513;53.234;6.568;2024-03-23T15:37:34;13.52;;;2.88;;
52618;SDS011;38513;53.234;6.568;2024-03-23T15:40:15;13.40;;;3.00;;
52618;SDS011;38513;53.234;6.568;2024-03-23T15:43:01;14.65;;;3.38;;
52618;SDS011;38513;53.234;6.568;2024-03-23T15:48:28;15.75;;;3.50;;
52618;SDS011;38513;53.234;6.568;2024-03-23T15:53:46;16.80;;;3.55;;
52618;SDS011;38513;53.234;6.568;2024-03-23T15:56:29;16.25;;;3.55;;
52618;SDS011;38513;53.234;6.568;2024-03-23T15:59:31;15.05;;;3.10;;
52618;SDS011;38513;53.234;6.568;2024-03-23T16:05:17;13.68;;;2.80;;
52618;SDS011;38513;53.234;6.568;2024-03-23T16:14:32;12.32;;;2.70;;
52618;SDS011;38513;53.234;6.568;2024-03-23T16:17:13;13.35;;;2.95;;
52618;SDS011;38513;53.234;6.568;2024-03-23T16:19:59;13.70;;;2.80;;
52618;SDS011;38513;53.234;6.568;2024-03-23T16:23:07;15.68;;;3.25;;
52618;SDS011;38513;53.234;6.568;2024-03-23T16:25:53;14.15;;;3.35;;
52618;SDS011;38513;53.234;6.568;2024-03-23T16:31:49;17.80;;;3.60;;
52618;SDS011;38513;53.234;6.568;2024-03-23T16:37:04;14.77;;;4.00;;
52618;SDS011;38513;53.234;6.568;2024-03-23T16:45:57;16.73;;;3.38;;
52618;SDS011;38513;53.234;6.568;2024-03-23T16:48:46;14.88;;;3.63;;
52618;SDS011;38513;53.234;6.568;2024-03-23T16:51:44;16.30;;;3.70;;
52618;SDS011;38513;53.234;6.568;2024-03-23T16:54:39;14.55;;;3.28;;
52618;SDS011;38513;53.234;6.568;2024-03-23T16:57:22;12.52;;;3.30;;
52618;SDS011;38513;53.234;6.568;2024-03-23T17:00:01;14.93;;;2.80;;
52618;SDS011;38513;53.234;6.568;2024-03-23T17:03:21;14.10;;;2.97;;
52618;SDS011;38513;53.234;6.568;2024-03-23T17:06:06;14.27;;;2.97;;
52618;SDS011;38513;53.234;6.568;2024-03-23T17:08:47;14.85;;;3.47;;
52618;SDS011;38513;53.234;6.568;2024-03-23T17:11:52;15.85;;;3.20;;
52618;SDS011;38513;53.234;6.568;2024-03-23T17:14:56;16.95;;;3.30;;
52618;SDS011;38513;53.234;6.568;2024-03-23T17:17:48;13.30;;;2.97;;
52618;SDS011;38513;53.234;6.568;2024-03-23T17:32:38;14.95;;;2.92;;
52618;SDS011;38513;53.234;6.568;2024-03-23T17:35:26;18.00;;;3.13;;
52618;SDS011;38513;53.234;6.568;2024-03-23T17:41:32;17.67;;;3.72;;
52618;SDS011;38513;53.234;6.568;2024-03-23T17:43:59;15.32;;;3.20;;
52618;SDS011;38513;53.234;6.568;2024-03-23T17:46:34;14.20;;;3.08;;
52618;SDS011;38513;53.234;6.568;2024-03-23T17:49:07;17.40;;;3.03;;
52618;SDS011;38513;53.234;6.568;2024-03-23T17:51:59;17.40;;;3.60;;
52618;SDS011;38513;53.234;6.568;2024-03-23T17:54:31;15.88;;;3.40;;
52618;SDS011;38513;53.234;6.568;2024-03-23T17:57:10;17.63;;;3.60;;
52618;SDS011;38513;53.234;6.568;2024-03-23T17:59:45;14.45;;;3.38;;
52618;SDS011;38513;53.234;6.568;2024-03-23T18:02:29;16.30;;;3.47;;
52618;SDS011;38513;53.234;6.568;2024-03-23T18:05:25;16.03;;;3.90;;
52618;SDS011;38513;53.234;6.568;2024-03-23T18:08:19;13.80;;;3.70;;
52618;SDS011;38513;53.234;6.568;2024-03-23T18:11:10;17.30;;;4.23;;
52618;SDS011;38513;53.234;6.568;2024-03-23T18:14:02;18.55;;;4.47;;
52618;SDS011;38513;53.234;6.568;2024-03-23T18:16:45;15.07;;;4.07;;
52618;SDS011;38513;53.234;6.568;2024-03-23T18:19:36;17.08;;;3.67;;
52618;SDS011;38513;53.234;6.568;2024-03-23T18:22:22;14.90;;;4.03;;
52618;SDS011;38513;53.234;6.568;2024-03-23T18:24:48;20.02;;;7.88;;
52618;SDS011;38513;53.234;6.568;2024-03-23T18:27:34;18.63;;;4.47;;
52618;SDS011;38513;53.234;6.568;2024-03-23T18:30:13;15.75;;;4.00;;
52618;SDS011;38513;53.234;6.568;2024-03-23T18:32:40;14.93;;;3.80;;
52618;SDS011;38513;53.234;6.568;2024-03-23T18:35:12;16.00;;;3.78;;
52618;SDS011;38513;53.234;6.568;2024-03-23T18:37:44;18.85;;;4.40;;
52618;SDS011;38513;53.234;6.568;2024-03-23T18:40:15;16.27;;;3.92;;
52618;SDS011;38513;53.234;6.568;2024-03-23T18:42:43;13.90;;;3.40;;
52618;SDS011;38513;53.234;6.568;2024-03-23T18:48:10;15.07;;;3.50;;
52618;SDS011;38513;53.234;6.568;2024-03-23T18:51:05;15.88;;;3.30;;
52618;SDS011;38513;53.234;6.568;2024-03-23T18:53:41;14.55;;;3.53;;
52618;SDS011;38513;53.234;6.568;2024-03-23T18:56:16;12.32;;;3.03;;
52618;SDS011;38513;53.234;6.568;2024-03-23T18:58:45;13.52;;;3.53;;
52618;SDS011;38513;53.234;6.568;2024-03-23T19:01:23;13.68;;;3.40;;
52618;SDS011;38513;53.234;6.568;2024-03-23T19:04:05;14.30;;;4.13;;
52618;SDS011;38513;53.234;6.568;2024-03-23T19:06:50;14.80;;;5.20;;
52618;SDS011;38513;53.234;6.568;2024-03-23T19:09:41;13.77;;;3.42;;
52618;SDS011;38513;53.234;6.568;2024-03-23T19:12:16;12.05;;;3.40;;
52618;SDS011;38513;53.234;6.568;2024-03-23T19:15:21;12.93;;;3.55;;
52618;SDS011;38513;53.234;6.568;2024-03-23T19:18:09;14.30;;;3.67;;
52618;SDS011;38513;53.234;6.568;2024-03-23T19:20:57;13.93;;;3.70;;